sensor_id;sensor_type;location;lat;lon;timestamp;P1;durP1;ratioP1;P2;durP2;ratioP2
51036;SDS011;37064;59.346;18.058;2023-06-22T00:00:32;7.05;;;5.30;;
51036;SDS011;37064;59.346;18.058;2023-06-22T00:02:58;5.80;;;4.82;;
51036;SDS011;37064;59.346;18.058;2023-06-22T00:05:24;6.43;;;4.75;;
51036;SDS011;37064;59.346;18.058;2023-06-22T00:07:50;9.50;;;5.60;;
51036;SDS011;37064;59.346;18.058;2023-06-22T00:10:16;6.80;;;4.80;;
51036;SDS011;37064;59.346;18.058;2023-06-22T00:12:42;5.88;;;5.22;;
51036;SDS011;37064;59.346;18.058;2023-06-22T00:15:08;7.65;;;5.13;;
51036;SDS011;37064;59.346;18.058;2023-06-22T00:17:34;7.63;;;5.05;;
51036;SDS011;37064;59.346;18.058;2023-06-22T00:20:00;6.85;;;4.70;;
51036;SDS011;37064;59.346;18.058;2023-06-22T00:22:30;7.38;;;5.45;;
51036;SDS011;37064;59.346;18.058;2023-06-22T00:24:56;8.32;;;5.35;;
51036;SDS011;37064;59.346;18.058;2023-06-22T00:27:22;7.25;;;5.40;;
51036;SDS011;37064;59.346;18.058;2023-06-22T00:29:48;6.40;;;5.28;;
51036;SDS011;37064;59.346;18.058;2023-06-22T00:32:14;6.53;;;5.45;;
51036;SDS011;37064;59.346;18.058;2023-06-22T00:34:42;5.85;;;5.00;;
51036;SDS011;37064;59.346;18.058;2023-06-22T00:37:08;7.50;;;5.32;;
51036;SDS011;37064;59.346;18.058;2023-06-22T00:39:36;7.18;;;5.30;;
51036;SDS011;37064;59.346;18.058;2023-06-22T00:42:02;7.05;;;5.53;;
51036;SDS011;37064;59.346;18.058;2023-06-22T00:44:28;7.70;;;5.95;;
51036;SDS011;37064;59.346;18.058;2023-06-22T00:46:54;6.18;;;5.30;;
51036;SDS011;37064;59.346;18.058;2023-06-22T00:49:20;7.90;;;5.97;;
51036;SDS011;37064;59.346;18.058;2023-06-22T00:51:46;7.72;;;5.78;;
51036;SDS011;37064;59.346;18.058;2023-06-22T00:54:12;7.80;;;6.03;;
51036;SDS011;37064;59.346;18.058;2023-06-22T00:56:39;6.75;;;6.05;;
51036;SDS011;37064;59.346;18.058;2023-06-22T00:59:06;6.70;;;5.97;;
51036;SDS011;37064;59.346;18.058;2023-06-22T01:01:32;7.63;;;5.90;;
51036;SDS011;37064;59.346;18.058;2023-06-22T01:03:59;6.82;;;5.18;;
51036;SDS011;37064;59.346;18.058;2023-06-22T01:06:26;9.77;;;6.45;;
51036;SDS011;37064;59.346;18.058;2023-06-22T01:09:02;6.78;;;5.53;;
51036;SDS011;37064;59.346;18.058;2023-06-22T01:11:34;7.35;;;6.45;;
51036;SDS011;37064;59.346;18.058;2023-06-22T01:16:34;7.53;;;6.68;;
51036;SDS011;37064;59.346;18.058;2023-06-22T01:19:01;8.25;;;6.70;;
51036;SDS011;37064;59.346;18.058;2023-06-22T01:21:30;7.15;;;5.88;;
51036;SDS011;37064;59.346;18.058;2023-06-22T01:29:04;7.07;;;6.30;;
51036;SDS011;37064;59.346;18.058;2023-06-22T01:31:32;11.27;;;7.13;;
51036;SDS011;37064;59.346;18.058;2023-06-22T01:34:00;7.57;;;6.55;;
51036;SDS011;37064;59.346;18.058;2023-06-22T01:36:27;7.97;;;6.47;;
51036;SDS011;37064;59.346;18.058;2023-06-22T01:38:53;10.15;;;7.20;;
51036;SDS011;37064;59.346;18.058;2023-06-22T01:41:19;8.90;;;6.93;;
51036;SDS011;37064;59.346;18.058;2023-06-22T01:43:46;10.73;;;7.72;;
51036;SDS011;37064;59.346;18.058;2023-06-22T01:46:13;9.30;;;7.43;;
51036;SDS011;37064;59.346;18.058;2023-06-22T01:48:39;10.45;;;7.57;;
51036;SDS011;37064;59.346;18.058;2023-06-22T01:51:05;11.30;;;8.63;;
51036;SDS011;37064;59.346;18.058;2023-06-22T01:53:31;10.60;;;7.22;;
51036;SDS011;37064;59.346;18.058;2023-06-22T01:55:57;8.35;;;7.03;;
51036;SDS011;37064;59.346;18.058;2023-06-22T01:58:28;9.73;;;7.78;;
51036;SDS011;37064;59.346;18.058;2023-06-22T02:01:11;9.95;;;7.50;;
51036;SDS011;37064;59.346;18.058;2023-06-22T02:03:40;9.02;;;7.50;;
51036;SDS011;37064;59.346;18.058;2023-06-22T02:06:21;9.77;;;7.47;;
51036;SDS011;37064;59.346;18.058;2023-06-22T02:08:49;11.68;;;7.70;;
51036;SDS011;37064;59.346;18.058;2023-06-22T02:11:18;7.53;;;6.67;;
51036;SDS011;37064;59.346;18.058;2023-06-22T02:13:44;10.35;;;8.18;;
51036;SDS011;37064;59.346;18.058;2023-06-22T02:16:11;10.15;;;7.95;;
51036;SDS011;37064;59.346;18.058;2023-06-22T02:18:37;8.68;;;7.20;;
51036;SDS011;37064;59.346;18.058;2023-06-22T02:21:05;9.57;;;6.72;;
51036;SDS011;37064;59.346;18.058;2023-06-22T02:23:31;10.23;;;7.75;;
51036;SDS011;37064;59.346;18.058;2023-06-22T02:25:59;9.23;;;7.32;;
51036;SDS011;37064;59.346;18.058;2023-06-22T02:28:26;9.95;;;7.82;;
51036;SDS011;37064;59.346;18.058;2023-06-22T02:30:52;9.23;;;7.95;;
51036;SDS011;37064;59.346;18.058;2023-06-22T02:33:18;8.05;;;7.07;;
51036;SDS011;37064;59.346;18.058;2023-06-22T02:35:44;9.60;;;7.63;;
51036;SDS011;37064;59.346;18.058;2023-06-22T02:38:13;10.38;;;6.88;;
51036;SDS011;37064;59.346;18.058;2023-06-22T02:40:39;9.35;;;7.38;;
51036;SDS011;37064;59.346;18.058;2023-06-22T02:43:06;9.68;;;8.27;;
51036;SDS011;37064;59.346;18.058;2023-06-22T02:45:32;9.50;;;7.50;;
51036;SDS011;37064;59.346;18.058;2023-06-22T02:47:58;9.70;;;7.70;;
51036;SDS011;37064;59.346;18.058;2023-06-22T02:50:24;9.60;;;7.63;;
51036;SDS011;37064;59.346;18.058;2023-06-22T02:52:50;7.72;;;6.78;;
51036;SDS011;37064;59.346;18.058;2023-06-22T02:55:16;10.45;;;7.63;;
51036;SDS011;37064;59.346;18.058;2023-06-22T02:57:42;9.65;;;7.40;;
51036;SDS011;37064;59.346;18.058;2023-06-22T03:00:09;9.35;;;7.05;;
51036;SDS011;37064;59.346;18.058;2023-06-22T03:02:45;9.35;;;7.13;;
51036;SDS011;37064;59.346;18.058;2023-06-22T03:05:11;7.75;;;6.70;;
51036;SDS011;37064;59.346;18.058;2023-06-22T03:07:42;10.50;;;7.22;;
51036;SDS011;37064;59.346;18.058;2023-06-22T03:10:12;9.05;;;7.95;;
51036;SDS011;37064;59.346;18.058;2023-06-22T03:12:38;8.63;;;7.63;;
51036;SDS011;37064;59.346;18.058;2023-06-22T03:15:08;7.97;;;7.00;;
51036;SDS011;37064;59.346;18.058;2023-06-22T03:17:34;7.90;;;7.10;;
51036;SDS011;37064;59.346;18.058;2023-06-22T03:20:01;9.18;;;7.03;;
51036;SDS011;37064;59.346;18.058;2023-06-22T03:22:33;8.40;;;7.47;;
51036;SDS011;37064;59.346;18.058;2023-06-22T03:24:59;8.38;;;7.32;;
51036;SDS011;37064;59.346;18.058;2023-06-22T03:27:25;8.88;;;7.32;;
51036;SDS011;37064;59.346;18.058;2023-06-22T03:29:51;8.80;;;7.85;;
51036;SDS011;37064;59.346;18.058;2023-06-22T03:32:17;9.50;;;7.65;;
51036;SDS011;37064;59.346;18.058;2023-06-22T03:34:43;8.70;;;6.95;;
51036;SDS011;37064;59.346;18.058;2023-06-22T03:37:13;9.77;;;7.65;;
51036;SDS011;37064;59.346;18.058;2023-06-22T03:39:40;8.55;;;6.88;;
51036;SDS011;37064;59.346;18.058;2023-06-22T03:42:06;7.55;;;6.75;;
51036;SDS011;37064;59.346;18.058;2023-06-22T03:44:32;7.57;;;6.78;;
51036;SDS011;37064;59.346;18.058;2023-06-22T03:46:58;10.30;;;7.75;;
51036;SDS011;37064;59.346;18.058;2023-06-22T03:49:24;8.02;;;7.22;;
51036;SDS011;37064;59.346;18.058;2023-06-22T03:51:50;8.60;;;7.45;;
51036;SDS011;37064;59.346;18.058;2023-06-22T03:54:16;7.07;;;6.25;;
51036;SDS011;37064;59.346;18.058;2023-06-22T03:56:42;11.05;;;7.15;;
51036;SDS011;37064;59.346;18.058;2023-06-22T03:59:08;8.48;;;6.97;;
51036;SDS011;37064;59.346;18.058;2023-06-22T04:01:34;9.27;;;7.18;;
51036;SDS011;37064;59.346;18.058;2023-06-22T04:04:01;8.98;;;7.20;;
51036;SDS011;37064;59.346;18.058;2023-06-22T04:06:27;9.20;;;7.38;;
51036;SDS011;37064;59.346;18.058;2023-06-22T04:08:53;12.15;;;8.05;;
51036;SDS011;37064;59.346;18.058;2023-06-22T04:11:19;8.70;;;7.78;;
51036;SDS011;37064;59.346;18.058;2023-06-22T04:13:45;8.95;;;7.18;;
51036;SDS011;37064;59.346;18.058;2023-06-22T04:16:11;9.70;;;7.13;;
51036;SDS011;37064;59.346;18.058;2023-06-22T04:18:37;7.88;;;6.55;;
51036;SDS011;37064;59.346;18.058;2023-06-22T04:21:04;8.05;;;6.82;;
51036;SDS011;37064;59.346;18.058;2023-06-22T04:23:30;9.30;;;6.63;;
51036;SDS011;37064;59.346;18.058;2023-06-22T04:25:56;7.70;;;6.68;;
51036;SDS011;37064;59.346;18.058;2023-06-22T04:28:22;8.73;;;6.80;;
51036;SDS011;37064;59.346;18.058;2023-06-22T04:30:48;12.13;;;7.10;;
51036;SDS011;37064;59.346;18.058;2023-06-22T04:33:16;11.40;;;6.35;;
51036;SDS011;37064;59.346;18.058;2023-06-22T04:35:44;9.20;;;6.43;;
51036;SDS011;37064;59.346;18.058;2023-06-22T04:38:11;12.40;;;6.55;;
51036;SDS011;37064;59.346;18.058;2023-06-22T04:40:38;8.52;;;5.63;;
51036;SDS011;37064;59.346;18.058;2023-06-22T04:43:04;6.82;;;6.03;;
51036;SDS011;37064;59.346;18.058;2023-06-22T04:45:31;7.40;;;5.50;;
51036;SDS011;37064;59.346;18.058;2023-06-22T04:47:58;6.47;;;5.55;;
51036;SDS011;37064;59.346;18.058;2023-06-22T04:50:24;6.38;;;5.60;;
51036;SDS011;37064;59.346;18.058;2023-06-22T04:52:50;8.02;;;5.80;;
51036;SDS011;37064;59.346;18.058;2023-06-22T04:55:16;6.88;;;5.68;;
51036;SDS011;37064;59.346;18.058;2023-06-22T04:57:46;7.78;;;5.80;;
51036;SDS011;37064;59.346;18.058;2023-06-22T05:02:43;6.35;;;5.72;;
51036;SDS011;37064;59.346;18.058;2023-06-22T05:05:10;7.63;;;6.10;;
51036;SDS011;37064;59.346;18.058;2023-06-22T05:07:38;6.20;;;5.38;;
51036;SDS011;37064;59.346;18.058;2023-06-22T05:10:07;6.93;;;5.55;;
51036;SDS011;37064;59.346;18.058;2023-06-22T05:12:34;9.52;;;5.20;;
51036;SDS011;37064;59.346;18.058;2023-06-22T05:15:00;10.07;;;6.00;;
51036;SDS011;37064;59.346;18.058;2023-06-22T05:17:26;7.85;;;5.72;;
51036;SDS011;37064;59.346;18.058;2023-06-22T05:19:53;9.82;;;5.32;;
51036;SDS011;37064;59.346;18.058;2023-06-22T05:22:20;11.18;;;5.63;;
51036;SDS011;37064;59.346;18.058;2023-06-22T05:24:46;7.50;;;5.53;;
51036;SDS011;37064;59.346;18.058;2023-06-22T05:27:13;5.40;;;4.90;;
51036;SDS011;37064;59.346;18.058;2023-06-22T05:29:39;7.45;;;5.60;;
51036;SDS011;37064;59.346;18.058;2023-06-22T05:32:05;7.28;;;5.55;;
51036;SDS011;37064;59.346;18.058;2023-06-22T05:34:31;9.93;;;5.25;;
51036;SDS011;37064;59.346;18.058;2023-06-22T05:36:57;7.75;;;5.00;;
51036;SDS011;37064;59.346;18.058;2023-06-22T05:39:24;6.95;;;5.10;;
51036;SDS011;37064;59.346;18.058;2023-06-22T05:41:53;7.90;;;5.18;;
51036;SDS011;37064;59.346;18.058;2023-06-22T05:44:19;10.10;;;4.88;;
51036;SDS011;37064;59.346;18.058;2023-06-22T05:46:45;6.18;;;4.45;;
51036;SDS011;37064;59.346;18.058;2023-06-22T05:49:13;6.60;;;4.88;;
51036;SDS011;37064;59.346;18.058;2023-06-22T05:51:39;5.88;;;4.47;;
51036;SDS011;37064;59.346;18.058;2023-06-22T05:54:05;6.03;;;4.80;;
51036;SDS011;37064;59.346;18.058;2023-06-22T05:56:33;7.97;;;5.22;;
51036;SDS011;37064;59.346;18.058;2023-06-22T05:58:59;6.45;;;4.35;;
51036;SDS011;37064;59.346;18.058;2023-06-22T06:01:25;6.55;;;5.10;;
51036;SDS011;37064;59.346;18.058;2023-06-22T06:03:51;7.40;;;5.03;;
51036;SDS011;37064;59.346;18.058;2023-06-22T06:06:17;7.18;;;5.10;;
51036;SDS011;37064;59.346;18.058;2023-06-22T06:08:46;7.15;;;4.30;;
51036;SDS011;37064;59.346;18.058;2023-06-22T06:11:12;5.20;;;4.20;;
51036;SDS011;37064;59.346;18.058;2023-06-22T06:13:38;8.65;;;5.35;;
51036;SDS011;37064;59.346;18.058;2023-06-22T06:16:04;6.20;;;4.63;;
51036;SDS011;37064;59.346;18.058;2023-06-22T06:18:30;5.63;;;4.95;;
51036;SDS011;37064;59.346;18.058;2023-06-22T06:20:56;5.97;;;4.35;;
51036;SDS011;37064;59.346;18.058;2023-06-22T06:23:22;13.95;;;4.63;;
51036;SDS011;37064;59.346;18.058;2023-06-22T06:25:48;7.93;;;5.25;;
51036;SDS011;37064;59.346;18.058;2023-06-22T06:28:14;6.13;;;4.55;;
51036;SDS011;37064;59.346;18.058;2023-06-22T06:30:40;5.47;;;4.53;;
51036;SDS011;37064;59.346;18.058;2023-06-22T06:33:06;5.13;;;4.57;;
51036;SDS011;37064;59.346;18.058;2023-06-22T06:35:33;11.35;;;5.80;;
51036;SDS011;37064;59.346;18.058;2023-06-22T06:37:59;6.68;;;4.25;;
51036;SDS011;37064;59.346;18.058;2023-06-22T06:40:26;6.50;;;4.07;;
51036;SDS011;37064;59.346;18.058;2023-06-22T06:42:52;6.70;;;3.78;;
51036;SDS011;37064;59.346;18.058;2023-06-22T06:45:18;5.93;;;3.83;;
51036;SDS011;37064;59.346;18.058;2023-06-22T06:47:45;7.93;;;4.32;;
51036;SDS011;37064;59.346;18.058;2023-06-22T06:50:11;12.10;;;5.10;;
51036;SDS011;37064;59.346;18.058;2023-06-22T06:52:37;9.27;;;4.38;;
51036;SDS011;37064;59.346;18.058;2023-06-22T06:55:03;5.32;;;3.95;;
51036;SDS011;37064;59.346;18.058;2023-06-22T06:57:32;6.80;;;3.60;;
51036;SDS011;37064;59.346;18.058;2023-06-22T06:59:58;7.85;;;3.80;;
51036;SDS011;37064;59.346;18.058;2023-06-22T07:02:25;13.68;;;3.78;;
51036;SDS011;37064;59.346;18.058;2023-06-22T07:04:52;5.93;;;3.10;;
51036;SDS011;37064;59.346;18.058;2023-06-22T07:07:20;5.85;;;3.78;;
51036;SDS011;37064;59.346;18.058;2023-06-22T07:09:46;7.22;;;4.03;;
51036;SDS011;37064;59.346;18.058;2023-06-22T07:12:12;6.82;;;3.40;;
51036;SDS011;37064;59.346;18.058;2023-06-22T07:14:38;6.90;;;3.33;;
51036;SDS011;37064;59.346;18.058;2023-06-22T07:17:04;5.82;;;3.30;;
51036;SDS011;37064;59.346;18.058;2023-06-22T07:19:32;5.07;;;3.58;;
51036;SDS011;37064;59.346;18.058;2023-06-22T07:21:58;5.07;;;3.70;;
51036;SDS011;37064;59.346;18.058;2023-06-22T07:24:24;5.10;;;3.65;;
51036;SDS011;37064;59.346;18.058;2023-06-22T07:26:50;4.93;;;3.05;;
51036;SDS011;37064;59.346;18.058;2023-06-22T07:29:17;6.95;;;3.55;;
51036;SDS011;37064;59.346;18.058;2023-06-22T07:31:43;5.40;;;3.65;;
51036;SDS011;37064;59.346;18.058;2023-06-22T07:34:09;6.00;;;3.58;;
51036;SDS011;37064;59.346;18.058;2023-06-22T07:36:35;5.45;;;2.95;;
51036;SDS011;37064;59.346;18.058;2023-06-22T07:39:02;6.63;;;4.18;;
51036;SDS011;37064;59.346;18.058;2023-06-22T07:41:28;8.23;;;3.72;;
51036;SDS011;37064;59.346;18.058;2023-06-22T07:43:55;8.00;;;3.30;;
51036;SDS011;37064;59.346;18.058;2023-06-22T07:46:21;7.72;;;4.20;;
51036;SDS011;37064;59.346;18.058;2023-06-22T07:48:47;6.10;;;3.25;;
51036;SDS011;37064;59.346;18.058;2023-06-22T07:51:13;5.80;;;3.53;;
51036;SDS011;37064;59.346;18.058;2023-06-22T07:53:40;4.20;;;3.15;;
51036;SDS011;37064;59.346;18.058;2023-06-22T07:56:06;5.90;;;3.47;;
51036;SDS011;37064;59.346;18.058;2023-06-22T07:58:32;5.63;;;3.58;;
51036;SDS011;37064;59.346;18.058;2023-06-22T08:00:58;8.18;;;3.38;;
51036;SDS011;37064;59.346;18.058;2023-06-22T08:03:24;5.47;;;2.97;;
51036;SDS011;37064;59.346;18.058;2023-06-22T08:05:50;7.22;;;3.90;;
51036;SDS011;37064;59.346;18.058;2023-06-22T08:08:16;6.43;;;3.20;;
51036;SDS011;37064;59.346;18.058;2023-06-22T08:10:42;6.40;;;3.85;;
51036;SDS011;37064;59.346;18.058;2023-06-22T08:13:08;7.15;;;3.88;;
51036;SDS011;37064;59.346;18.058;2023-06-22T08:15:34;5.15;;;3.13;;
51036;SDS011;37064;59.346;18.058;2023-06-22T08:18:00;4.60;;;2.85;;
51036;SDS011;37064;59.346;18.058;2023-06-22T08:20:26;6.20;;;2.78;;
51036;SDS011;37064;59.346;18.058;2023-06-22T08:22:53;7.25;;;3.78;;
51036;SDS011;37064;59.346;18.058;2023-06-22T08:25:20;5.40;;;3.40;;
51036;SDS011;37064;59.346;18.058;2023-06-22T08:27:46;5.53;;;3.75;;
51036;SDS011;37064;59.346;18.058;2023-06-22T08:30:15;7.03;;;3.05;;
51036;SDS011;37064;59.346;18.058;2023-06-22T08:32:43;7.63;;;3.10;;
51036;SDS011;37064;59.346;18.058;2023-06-22T08:35:09;5.75;;;3.17;;
51036;SDS011;37064;59.346;18.058;2023-06-22T08:37:35;6.75;;;3.17;;
51036;SDS011;37064;59.346;18.058;2023-06-22T08:40:04;5.25;;;2.88;;
51036;SDS011;37064;59.346;18.058;2023-06-22T08:42:30;5.03;;;3.30;;
51036;SDS011;37064;59.346;18.058;2023-06-22T08:44:57;6.50;;;3.00;;
51036;SDS011;37064;59.346;18.058;2023-06-22T08:47:23;6.97;;;3.40;;
51036;SDS011;37064;59.346;18.058;2023-06-22T08:49:49;4.85;;;3.15;;
51036;SDS011;37064;59.346;18.058;2023-06-22T08:52:16;7.63;;;3.63;;
51036;SDS011;37064;59.346;18.058;2023-06-22T08:54:43;4.13;;;2.83;;
51036;SDS011;37064;59.346;18.058;2023-06-22T08:57:09;9.00;;;2.55;;
51036;SDS011;37064;59.346;18.058;2023-06-22T08:59:35;8.27;;;3.35;;
51036;SDS011;37064;59.346;18.058;2023-06-22T09:02:01;5.30;;;3.20;;
51036;SDS011;37064;59.346;18.058;2023-06-22T09:04:27;4.05;;;2.70;;
51036;SDS011;37064;59.346;18.058;2023-06-22T09:06:53;4.30;;;2.95;;
51036;SDS011;37064;59.346;18.058;2023-06-22T09:09:20;3.65;;;2.58;;
51036;SDS011;37064;59.346;18.058;2023-06-22T09:11:46;4.03;;;2.30;;
51036;SDS011;37064;59.346;18.058;2023-06-22T09:14:12;5.82;;;2.80;;
51036;SDS011;37064;59.346;18.058;2023-06-22T09:16:39;7.55;;;2.95;;
51036;SDS011;37064;59.346;18.058;2023-06-22T09:19:05;5.80;;;3.00;;
51036;SDS011;37064;59.346;18.058;2023-06-22T09:21:31;4.03;;;3.10;;
51036;SDS011;37064;59.346;18.058;2023-06-22T09:23:57;4.38;;;2.80;;
51036;SDS011;37064;59.346;18.058;2023-06-22T09:26:23;5.68;;;2.60;;
51036;SDS011;37064;59.346;18.058;2023-06-22T09:28:49;5.68;;;2.80;;
51036;SDS011;37064;59.346;18.058;2023-06-22T09:31:15;5.43;;;2.92;;
51036;SDS011;37064;59.346;18.058;2023-06-22T09:33:42;3.55;;;2.65;;
51036;SDS011;37064;59.346;18.058;2023-06-22T09:36:08;4.03;;;2.55;;
51036;SDS011;37064;59.346;18.058;2023-06-22T09:38:37;5.00;;;3.70;;
51036;SDS011;37064;59.346;18.058;2023-06-22T09:43:29;5.80;;;2.67;;
51036;SDS011;37064;59.346;18.058;2023-06-22T09:45:55;6.05;;;2.85;;
51036;SDS011;37064;59.346;18.058;2023-06-22T09:48:21;4.47;;;2.72;;
51036;SDS011;37064;59.346;18.058;2023-06-22T09:50:47;5.40;;;3.05;;
51036;SDS011;37064;59.346;18.058;2023-06-22T09:53:13;5.95;;;3.33;;
51036;SDS011;37064;59.346;18.058;2023-06-22T09:55:39;7.30;;;2.72;;
51036;SDS011;37064;59.346;18.058;2023-06-22T09:58:05;5.65;;;2.95;;
51036;SDS011;37064;59.346;18.058;2023-06-22T10:00:31;3.53;;;2.35;;
51036;SDS011;37064;59.346;18.058;2023-06-22T10:02:57;8.07;;;3.22;;
51036;SDS011;37064;59.346;18.058;2023-06-22T10:05:23;4.25;;;2.30;;
51036;SDS011;37064;59.346;18.058;2023-06-22T10:07:50;4.70;;;2.58;;
51036;SDS011;37064;59.346;18.058;2023-06-22T10:10:16;4.80;;;2.72;;
51036;SDS011;37064;59.346;18.058;2023-06-22T10:12:48;5.18;;;2.03;;
51036;SDS011;37064;59.346;18.058;2023-06-22T10:15:19;4.93;;;2.60;;
51036;SDS011;37064;59.346;18.058;2023-06-22T10:17:46;3.22;;;2.30;;
51036;SDS011;37064;59.346;18.058;2023-06-22T10:20:12;5.43;;;2.25;;
51036;SDS011;37064;59.346;18.058;2023-06-22T10:22:42;3.97;;;2.65;;
51036;SDS011;37064;59.346;18.058;2023-06-22T10:25:08;5.07;;;2.10;;
51036;SDS011;37064;59.346;18.058;2023-06-22T10:27:35;4.88;;;2.28;;
51036;SDS011;37064;59.346;18.058;2023-06-22T10:30:01;4.78;;;2.30;;
51036;SDS011;37064;59.346;18.058;2023-06-22T10:32:27;3.78;;;2.25;;
51036;SDS011;37064;59.346;18.058;2023-06-22T10:34:53;5.65;;;2.08;;
51036;SDS011;37064;59.346;18.058;2023-06-22T10:37:19;3.83;;;2.85;;
51036;SDS011;37064;59.346;18.058;2023-06-22T10:39:46;4.00;;;2.35;;
51036;SDS011;37064;59.346;18.058;2023-06-22T10:42:12;4.35;;;2.03;;
51036;SDS011;37064;59.346;18.058;2023-06-22T10:44:38;6.00;;;2.08;;
51036;SDS011;37064;59.346;18.058;2023-06-22T10:47:06;3.85;;;1.80;;
51036;SDS011;37064;59.346;18.058;2023-06-22T10:49:32;7.13;;;2.13;;
51036;SDS011;37064;59.346;18.058;2023-06-22T10:51:58;5.95;;;2.33;;
51036;SDS011;37064;59.346;18.058;2023-06-22T10:54:24;4.55;;;1.95;;
51036;SDS011;37064;59.346;18.058;2023-06-22T10:56:50;6.53;;;2.17;;
51036;SDS011;37064;59.346;18.058;2023-06-22T10:59:16;4.90;;;2.20;;
51036;SDS011;37064;59.346;18.058;2023-06-22T11:01:42;3.53;;;1.95;;
51036;SDS011;37064;59.346;18.058;2023-06-22T11:04:08;2.65;;;1.95;;
51036;SDS011;37064;59.346;18.058;2023-06-22T11:06:34;5.13;;;1.98;;
51036;SDS011;37064;59.346;18.058;2023-06-22T11:09:00;4.40;;;1.98;;
